Time;durP1;ratioP1;P1;durP2;ratioP2;P2;SDS_P1;SDS_P2;PMS_P1;PMS_P2;Temp;Humidity;BMP_temperature;BMP_pressure;BME280_temperature;BME280_humidity;BME280_pressure;Samples;Min_cycle;Max_cycle;Signal;HPM_P1;HPM_P2
2024/02/22 00:01:58;;;;;;;6.47;3.20;;;10.90;97.40;;;;;;6183864;23;20319;-64
2024/02/22 00:04:44;;;;;;;5.63;3.05;;;10.90;97.30;;;;;;6184310;23;20481;-64
2024/02/22 00:07:30;;;;;;;4.18;2.90;;;10.90;97.30;;;;;;6184112;23;20013;-64
2024/02/22 00:10:17;;;;;;;5.25;2.88;;;10.90;97.20;;;;;;6182122;23;20005;-68
2024/02/22 00:13:03;;;;;;;5.35;2.88;;;10.90;97.30;;;;;;6185065;23;20315;-68
2024/02/22 00:15:48;;;;;;;8.32;3.67;;;10.90;97.20;;;;;;6183986;23;20005;-68
2024/02/22 00:18:34;;;;;;;5.40;2.65;;;10.90;97.20;;;;;;6183275;23;20009;-68
2024/02/22 00:21:20;;;;;;;4.90;3.13;;;10.90;97.20;;;;;;6182599;23;20099;-68
2024/02/22 00:24:06;;;;;;;6.68;3.58;;;10.90;97.10;;;;;;6184313;23;20060;-68
2024/02/22 00:26:52;;;;;;;7.20;3.20;;;11.00;97.10;;;;;;6182902;23;20001;-68
2024/02/22 00:29:38;;;;;;;5.55;2.80;;;11.00;97.10;;;;;;6183840;23;20052;-68
2024/02/22 00:32:24;;;;;;;5.20;2.55;;;10.90;97.00;;;;;;6182928;23;20449;-67
2024/02/22 00:35:10;;;;;;;6.10;2.95;;;11.00;97.00;;;;;;6179499;23;20001;-68
2024/02/22 00:37:57;;;;;;;6.90;2.95;;;11.00;96.90;;;;;;6184863;23;20009;-68
2024/02/22 00:40:43;;;;;;;8.95;3.35;;;11.00;96.90;;;;;;6183206;23;20032;-68
2024/02/22 00:43:29;;;;;;;4.93;2.67;;;11.00;96.80;;;;;;6182488;23;20434;-68
2024/02/22 00:46:14;;;;;;;5.07;2.75;;;11.00;96.80;;;;;;6185168;23;20083;-68
2024/02/22 00:49:01;;;;;;;8.30;3.55;;;11.00;96.70;;;;;;6184908;23;20005;-69
2024/02/22 00:51:46;;;;;;;5.20;2.20;;;11.00;96.70;;;;;;6181970;23;20005;-67
2024/02/22 00:54:32;;;;;;;6.35;2.63;;;11.00;96.60;;;;;;6181671;23;20036;-67
2024/02/22 00:57:18;;;;;;;6.75;2.75;;;11.00;96.60;;;;;;6187995;23;20001;-67
2024/02/22 01:00:06;;;;;;;4.50;2.35;;;11.10;96.60;;;;;;6190266;23;20005;-67
2024/02/22 01:02:52;;;;;;;4.28;2.22;;;11.00;96.50;;;;;;6184409;23;20017;-68
2024/02/22 01:05:38;;;;;;;5.40;2.42;;;11.00;96.50;;;;;;6184605;23;20005;-67
2024/02/22 01:08:24;;;;;;;4.82;2.00;;;11.00;96.40;;;;;;6183509;23;20009;-68
2024/02/22 01:11:10;;;;;;;9.18;2.55;;;11.00;96.30;;;;;;6184613;23;20033;-68
2024/02/22 01:13:56;;;;;;;4.10;2.42;;;11.00;96.30;;;;;;6181296;23;20045;-68
2024/02/22 01:16:43;;;;;;;4.78;2.38;;;11.00;96.20;;;;;;6183535;23;20029;-68
2024/02/22 01:19:29;;;;;;;6.53;2.58;;;11.00;96.10;;;;;;6184265;23;20457;-68
2024/02/22 01:22:15;;;;;;;4.82;2.50;;;11.00;96.10;;;;;;6183749;23;20013;-68
2024/02/22 01:25:01;;;;;;;7.80;3.25;;;11.00;96.10;;;;;;6183086;23;20506;-68
2024/02/22 01:27:47;;;;;;;4.22;2.15;;;11.10;96.00;;;;;;6183666;23;20013;-68
2024/02/22 01:30:32;;;;;;;4.88;2.13;;;11.10;96.00;;;;;;6183178;23;20005;-68
2024/02/22 01:33:18;;;;;;;7.47;2.35;;;11.10;95.80;;;;;;6182765;23;20005;-68
2024/02/22 01:36:05;;;;;;;4.43;2.20;;;11.10;95.70;;;;;;6184062;23;20453;-68
2024/02/22 01:38:50;;;;;;;4.85;2.60;;;11.10;95.70;;;;;;6184052;23;20032;-68
2024/02/22 01:41:36;;;;;;;6.70;3.20;;;11.10;95.70;;;;;;6180238;23;20048;-68
2024/02/22 01:44:28;;;;;;;6.90;2.67;;;11.10;95.60;;;;;;6182345;23;20449;-67
2024/02/22 01:47:14;;;;;;;5.57;2.78;;;11.10;95.50;;;;;;6184261;23;20040;-67
2024/02/22 01:50:01;;;;;;;3.95;2.20;;;11.10;95.40;;;;;;6184124;23;20047;-67
2024/02/22 01:52:47;;;;;;;6.13;2.33;;;11.10;95.30;;;;;;6182924;23;20005;-67
2024/02/22 01:55:34;;;;;;;3.83;2.28;;;11.20;95.30;;;;;;6182604;23;20009;-68
2024/02/22 01:58:21;;;;;;;8.75;2.47;;;11.20;95.20;;;;;;6183728;23;20381;-68
2024/02/22 02:01:07;;;;;;;3.65;1.92;;;11.20;95.10;;;;;;6180824;23;20100;-67
2024/02/22 02:03:53;;;;;;;8.25;2.65;;;11.20;95.00;;;;;;6183819;23;20001;-67
2024/02/22 02:06:40;;;;;;;6.88;3.70;;;11.20;95.00;;;;;;6182307;23;20453;-68
2024/02/22 02:09:26;;;;;;;8.38;4.50;;;11.20;94.90;;;;;;6183664;23;20005;-68
2024/02/22 02:12:13;;;;;;;9.65;4.95;;;11.20;94.90;;;;;;6184607;23;20009;-68
2024/02/22 02:14:59;;;;;;;9.27;5.20;;;11.20;94.90;;;;;;6184598;23;20097;-68
2024/02/22 02:17:45;;;;;;;9.27;5.07;;;11.30;94.90;;;;;;6181969;23;20009;-66
2024/02/22 02:20:40;;;;;;;12.02;4.35;;;11.30;94.90;;;;;;6183639;23;20028;-68
2024/02/22 02:24:03;;;;;;;7.80;3.13;;;11.30;94.80;;;;;;6182400;23;20091;-68
2024/02/22 02:26:50;;;;;;;5.53;2.80;;;11.30;94.80;;;;;;6187190;23;20111;-69
2024/02/22 02:29:36;;;;;;;3.55;1.90;;;11.30;94.80;;;;;;6188899;23;20044;-69
2024/02/22 02:32:22;;;;;;;3.38;1.90;;;11.30;94.70;;;;;;6182329;23;20009;-69
2024/02/22 02:35:08;;;;;;;6.47;2.33;;;11.30;94.70;;;;;;6183130;23;20043;-69
2024/02/22 02:37:57;;;;;;;5.97;1.77;;;11.30;94.70;;;;;;6182425;23;20013;-69
2024/02/22 02:40:43;;;;;;;3.60;1.80;;;11.30;94.70;;;;;;6181131;23;20084;-68
2024/02/22 02:43:29;;;;;;;5.97;2.00;;;11.30;94.70;;;;;;6182221;23;20020;-68
2024/02/22 02:46:15;;;;;;;3.88;1.80;;;11.40;94.70;;;;;;6182929;23;20012;-68
2024/02/22 02:49:01;;;;;;;2.50;1.58;;;11.40;94.70;;;;;;6182673;23;20318;-68
2024/02/22 02:51:47;;;;;;;3.70;1.60;;;11.30;94.70;;;;;;6181598;23;20028;-68
2024/02/22 02:54:33;;;;;;;3.00;1.80;;;11.30;94.90;;;;;;6182373;23;20013;-68
2024/02/22 02:57:21;;;;;;;3.08;1.73;;;11.40;94.70;;;;;;6183088;23;20055;-68
2024/02/22 03:00:20;;;;;;;3.72;1.80;;;11.40;94.70;;;;;;6181711;23;20087;-68
2024/02/22 03:03:06;;;;;;;3.15;1.77;;;11.40;94.70;;;;;;6183282;23;20017;-68
2024/02/22 03:05:52;;;;;;;5.07;1.83;;;11.40;94.70;;;;;;6181500;23;20084;-68
2024/02/22 03:08:38;;;;;;;4.07;1.67;;;11.40;94.60;;;;;;6182719;23;20096;-68
2024/02/22 03:11:24;;;;;;;3.30;1.80;;;11.40;94.60;;;;;;6181629;23;20453;-68
2024/02/22 03:14:10;;;;;;;3.13;1.58;;;11.40;94.60;;;;;;6181382;23;20005;-68
2024/02/22 03:16:55;;;;;;;2.40;1.60;;;11.40;94.70;;;;;;6182608;23;20076;-68
2024/02/22 03:19:41;;;;;;;4.60;1.35;;;11.40;94.70;;;;;;6182891;23;20016;-68
2024/02/22 03:22:28;;;;;;;1.95;1.38;;;11.50;94.70;;;;;;6181501;23;20032;-68
2024/02/22 03:25:14;;;;;;;3.28;1.38;;;11.50;94.80;;;;;;6181825;23;20005;-68
2024/02/22 03:28:00;;;;;;;2.45;1.33;;;11.50;94.90;;;;;;6182518;23;20009;-68
2024/02/22 03:30:46;;;;;;;3.03;1.67;;;11.50;94.90;;;;;;6181221;23;20005;-68
2024/02/22 03:33:32;;;;;;;2.60;1.40;;;11.50;95.00;;;;;;6181262;23;20310;-68
2024/02/22 03:36:18;;;;;;;1.67;1.35;;;11.50;95.10;;;;;;6181202;23;20005;-68
2024/02/22 03:39:05;;;;;;;2.03;1.23;;;11.60;95.20;;;;;;6180504;23;20064;-68
2024/02/22 03:41:52;;;;;;;2.78;1.40;;;11.60;95.20;;;;;;6183179;23;20016;-68
2024/02/22 03:44:38;;;;;;;4.05;1.70;;;11.60;95.50;;;;;;6183254;23;20017;-69
2024/02/22 03:47:24;;;;;;;1.85;1.30;;;11.70;95.30;;;;;;6180525;23;20019;-69
2024/02/22 03:50:10;;;;;;;3.72;1.60;;;11.60;95.40;;;;;;6180939;23;20005;-69
2024/02/22 03:52:56;;;;;;;4.45;1.40;;;11.70;95.50;;;;;;6182630;23;20016;-68
2024/02/22 03:55:43;;;;;;;2.15;1.20;;;11.70;95.60;;;;;;6182787;23;20001;-68
2024/02/22 03:58:29;;;;;;;2.55;1.52;;;11.70;95.60;;;;;;6180570;23;20036;-68
2024/02/22 04:01:15;;;;;;;1.63;1.23;;;11.70;95.70;;;;;;6181573;23;20017;-68
2024/02/22 04:04:01;;;;;;;2.53;1.30;;;11.70;96.00;;;;;;6181200;23;20389;-68
2024/02/22 04:06:47;;;;;;;2.20;1.40;;;11.70;95.90;;;;;;6180139;23;20449;-68
2024/02/22 04:09:32;;;;;;;1.40;1.17;;;11.70;95.90;;;;;;6182700;23;20005;-68
2024/02/22 04:12:19;;;;;;;3.83;1.42;;;11.80;96.00;;;;;;6190681;23;20005;-68
2024/02/22 04:15:06;;;;;;;1.98;1.30;;;11.80;96.10;;;;;;6186959;23;20467;-68
2024/02/22 04:17:52;;;;;;;3.20;1.20;;;11.80;96.10;;;;;;6180010;23;20020;-68
2024/02/22 04:20:37;;;;;;;1.73;1.30;;;11.80;96.10;;;;;;6182059;23;20008;-69
2024/02/22 04:23:23;;;;;;;2.40;1.20;;;11.80;96.20;;;;;;6178721;23;20469;-68
2024/02/22 04:26:10;;;;;;;1.48;1.25;;;11.80;96.20;;;;;;6182609;23;20009;-68
2024/02/22 04:28:56;;;;;;;2.20;1.80;;;11.80;96.20;;;;;;6179679;23;20001;-68
2024/02/22 04:31:43;;;;;;;3.25;1.90;;;11.80;96.30;;;;;;6181689;23;20017;-67
2024/02/22 04:34:29;;;;;;;5.00;1.63;;;11.80;96.30;;;;;;6180819;23;20016;-67
2024/02/22 04:37:18;;;;;;;2.95;1.33;;;11.80;96.30;;;;;;6182527;23;20092;-68
2024/02/22 04:40:06;;;;;;;2.58;1.30;;;11.80;96.30;;;;;;6183210;23;20433;-68
2024/02/22 04:42:53;;;;;;;2.17;1.38;;;11.80;96.40;;;;;;6181592;23;20013;-68
2024/02/22 04:45:39;;;;;;;1.88;1.40;;;11.80;96.40;;;;;;6183963;23;20025;-67
2024/02/22 04:48:25;;;;;;;2.35;1.40;;;11.80;96.40;;;;;;6184024;23;20114;-67
2024/02/22 04:51:11;;;;;;;3.33;1.80;;;11.80;96.40;;;;;;6183826;23;20033;-67
2024/02/22 04:53:57;;;;;;;1.90;1.35;;;11.80;96.40;;;;;;6184011;23;20104;-68
2024/02/22 04:56:43;;;;;;;1.80;1.25;;;11.80;96.50;;;;;;6185141;23;20013;-67
2024/02/22 04:59:29;;;;;;;2.80;1.20;;;11.80;96.50;;;;;;6180504;23;20020;-68
2024/02/22 05:02:15;;;;;;;4.22;1.40;;;11.80;96.50;;;;;;6182300;23;20423;-67
2024/02/22 05:05:01;;;;;;;2.10;1.25;;;11.80;96.60;;;;;;6183828;23;20334;-66
2024/02/22 05:07:47;;;;;;;2.00;1.40;;;11.80;96.60;;;;;;6183636;23;20005;-67
2024/02/22 05:10:34;;;;;;;1.52;1.10;;;11.80;96.70;;;;;;6184477;23;20005;-67
2024/02/22 05:13:21;;;;;;;2.88;1.35;;;11.80;96.80;;;;;;6183207;23;20009;-67
2024/02/22 05:16:07;;;;;;;2.53;1.52;;;11.70;96.80;;;;;;6183754;23;20015;-67
2024/02/22 05:18:53;;;;;;;2.13;1.25;;;11.70;96.90;;;;;;6179970;23;20087;-67
2024/02/22 05:21:39;;;;;;;1.90;1.27;;;11.80;97.00;;;;;;6179766;23;20016;-67
2024/02/22 05:24:25;;;;;;;2.22;1.40;;;11.70;97.00;;;;;;6183317;23;20013;-67
2024/02/22 05:27:11;;;;;;;2.30;1.50;;;11.80;97.10;;;;;;6182109;23;20457;-67
2024/02/22 05:29:56;;;;;;;1.90;1.30;;;11.80;97.20;;;;;;6183148;23;20365;-68
2024/02/22 05:32:42;;;;;;;1.40;1.00;;;11.70;97.30;;;;;;6182721;23;20520;-67
2024/02/22 05:35:29;;;;;;;1.98;1.35;;;11.70;97.40;;;;;;6182762;23;20059;-67
2024/02/22 05:38:14;;;;;;;3.17;1.48;;;11.70;97.50;;;;;;6183320;23;20084;-67
2024/02/22 05:41:00;;;;;;;1.63;1.25;;;11.70;97.60;;;;;;6180787;23;20032;-67
2024/02/22 05:43:46;;;;;;;2.00;1.10;;;11.70;97.70;;;;;;6182500;23;20021;-67
2024/02/22 05:46:32;;;;;;;1.83;1.38;;;11.60;97.80;;;;;;6181019;23;20350;-67
2024/02/22 05:49:18;;;;;;;3.35;1.55;;;11.60;97.90;;;;;;6182578;23;20008;-67
2024/02/22 05:52:04;;;;;;;1.67;1.27;;;11.60;98.00;;;;;;6181572;23;20009;-67
2024/02/22 05:54:50;;;;;;;2.60;1.60;;;11.60;98.10;;;;;;6181754;23;20040;-67
2024/02/22 05:57:36;;;;;;;2.05;1.38;;;11.60;98.20;;;;;;6181588;23;20001;-68
2024/02/22 06:00:24;;;;;;;2.72;1.52;;;11.60;98.30;;;;;;6181997;23;20009;-68
2024/02/22 06:03:10;;;;;;;2.35;1.50;;;11.50;98.40;;;;;;6182213;23;20090;-68
2024/02/22 06:05:56;;;;;;;2.92;1.50;;;11.50;98.50;;;;;;6183160;23;20005;-68
2024/02/22 06:08:42;;;;;;;2.53;1.70;;;11.50;98.60;;;;;;6183110;23;20001;-68
2024/02/22 06:11:28;;;;;;;3.38;1.77;;;11.50;98.70;;;;;;6181775;23;20008;-68
2024/02/22 06:14:14;;;;;;;2.88;1.50;;;11.40;98.80;;;;;;6182283;23;20008;-68
2024/02/22 06:17:00;;;;;;;2.33;1.45;;;11.50;98.90;;;;;;6182373;23;20001;-69
2024/02/22 06:19:46;;;;;;;2.65;1.80;;;11.40;99.00;;;;;;6181449;23;20016;-69
2024/02/22 06:22:33;;;;;;;2.90;1.67;;;11.40;99.10;;;;;;6181516;23;20013;-69
2024/02/22 06:25:19;;;;;;;3.53;1.50;;;11.40;99.10;;;;;;6183723;23;20067;-69
2024/02/22 06:28:06;;;;;;;2.42;1.50;;;11.40;99.20;;;;;;6182796;23;20012;-69
2024/02/22 06:30:53;;;;;;;4.90;1.60;;;11.40;99.30;;;;;;6183623;23;20029;-69
2024/02/22 06:33:39;;;;;;;2.13;1.70;;;11.40;99.40;;;;;;6181296;23;20060;-69
2024/02/22 06:36:26;;;;;;;2.47;1.52;;;11.40;99.50;;;;;;6182597;23;20016;-69
2024/02/22 06:39:12;;;;;;;2.40;1.52;;;11.40;99.50;;;;;;6178309;23;20060;-69
2024/02/22 06:41:57;;;;;;;2.33;1.83;;;11.30;99.60;;;;;;6182395;23;20107;-69
2024/02/22 06:44:45;;;;;;;2.13;1.50;;;11.30;99.60;;;;;;6184100;23;20024;-69
2024/02/22 06:47:30;;;;;;;2.05;1.42;;;11.30;99.70;;;;;;6184651;23;20071;-69
2024/02/22 06:50:17;;;;;;;2.63;1.75;;;11.30;99.80;;;;;;6183141;23;20001;-68
2024/02/22 06:53:03;;;;;;;2.30;1.50;;;11.30;99.90;;;;;;6182621;23;20009;-69
2024/02/22 06:55:49;;;;;;;2.58;1.55;;;11.30;99.90;;;;;;6182183;23;20036;-69
2024/02/22 06:58:35;;;;;;;2.30;1.40;;;11.30;99.90;;;;;;6180735;23;20005;-68
2024/02/22 07:01:21;;;;;;;2.08;1.40;;;11.30;99.90;;;;;;6182089;23;20013;-69
2024/02/22 07:04:09;;;;;;;2.13;1.40;;;11.20;99.90;;;;;;6182179;23;20012;-69
2024/02/22 07:06:57;;;;;;;1.77;1.38;;;11.20;99.90;;;;;;6182713;23;20463;-69
2024/02/22 07:09:43;;;;;;;2.72;1.55;;;11.20;99.90;;;;;;6182072;23;20319;-68
2024/02/22 07:12:29;;;;;;;1.98;1.45;;;11.20;99.90;;;;;;6181126;23;20005;-70
2024/02/22 07:15:16;;;;;;;4.20;1.88;;;11.20;99.90;;;;;;6182204;23;20006;-69
2024/02/22 07:18:02;;;;;;;3.22;1.85;;;11.30;99.90;;;;;;6181002;23;20473;-68
2024/02/22 07:20:48;;;;;;;2.72;1.65;;;11.20;99.90;;;;;;6182809;23;20396;-68
2024/02/22 07:23:34;;;;;;;1.85;1.48;;;11.30;99.90;;;;;;6182171;23;20020;-68
2024/02/22 07:26:20;;;;;;;2.45;1.48;;;11.20;99.90;;;;;;6183070;23;20052;-66
2024/02/22 07:29:06;;;;;;;2.78;1.77;;;11.20;99.90;;;;;;6179146;23;20083;-69
2024/02/22 07:31:52;;;;;;;2.75;1.70;;;11.30;99.90;;;;;;6181537;23;20005;-69
2024/02/22 07:34:38;;;;;;;2.60;1.60;;;11.20;99.90;;;;;;6182801;23;20520;-70
2024/02/22 07:37:25;;;;;;;2.53;1.65;;;11.20;99.90;;;;;;6181140;23;20091;-69
2024/02/22 07:40:11;;;;;;;3.40;1.60;;;11.20;99.90;;;;;;6182596;23;20017;-68
2024/02/22 07:42:58;;;;;;;3.58;1.55;;;11.20;99.90;;;;;;6182563;23;20438;-68
2024/02/22 07:45:44;;;;;;;2.90;1.98;;;11.20;99.90;;;;;;6182123;23;20032;-68
2024/02/22 07:48:30;;;;;;;2.00;1.60;;;11.20;99.90;;;;;;6180764;23;20009;-69
2024/02/22 07:51:16;;;;;;;5.30;2.15;;;11.20;99.90;;;;;;6182050;23;20008;-68
2024/02/22 07:54:02;;;;;;;3.75;1.85;;;11.20;99.90;;;;;;6182226;23;20001;-68
2024/02/22 07:56:48;;;;;;;3.05;1.90;;;11.20;99.90;;;;;;6182144;23;20012;-69
2024/02/22 07:59:34;;;;;;;4.88;2.15;;;11.30;99.90;;;;;;6182448;23;20017;-68
2024/02/22 08:02:19;;;;;;;3.55;2.00;;;11.20;99.90;;;;;;6181653;23;20099;-68
2024/02/22 08:05:06;;;;;;;7.95;2.40;;;11.20;99.90;;;;;;6180654;23;20005;-67
2024/02/22 08:07:52;;;;;;;3.53;1.65;;;11.20;99.90;;;;;;6180223;23;20374;-67
2024/02/22 08:10:38;;;;;;;3.33;1.98;;;11.20;99.90;;;;;;6181989;23;20448;-68
2024/02/22 08:13:23;;;;;;;3.85;1.80;;;11.20;99.90;;;;;;6182117;23;20350;-68
2024/02/22 08:16:10;;;;;;;3.78;1.80;;;11.20;99.90;;;;;;6184294;23;20341;-68
2024/02/22 08:18:56;;;;;;;2.55;1.90;;;11.20;99.90;;;;;;6184616;23;20032;-68
2024/02/22 08:21:42;;;;;;;3.40;1.63;;;11.20;99.90;;;;;;6183474;23;20451;-68
2024/02/22 08:24:28;;;;;;;3.55;1.95;;;11.20;99.90;;;;;;6184002;23;20005;-68
2024/02/22 08:27:14;;;;;;;3.70;1.58;;;11.20;99.90;;;;;;6183819;23;20004;-68
2024/02/22 08:30:00;;;;;;;5.43;2.42;;;11.20;99.90;;;;;;6181814;23;20011;-69
2024/02/22 08:32:46;;;;;;;2.55;1.80;;;11.20;99.90;;;;;;6184386;23;20012;-69
2024/02/22 08:35:31;;;;;;;3.70;2.20;;;11.20;99.90;;;;;;6184109;23;20009;-67
2024/02/22 08:38:17;;;;;;;6.53;2.10;;;11.20;99.90;;;;;;6182864;23;20009;-68
2024/02/22 08:41:05;;;;;;;2.65;2.00;;;11.30;99.90;;;;;;6181330;23;20016;-68
2024/02/22 08:43:53;;;;;;;3.67;2.30;;;11.30;99.90;;;;;;6184701;23;20020;-68
2024/02/22 08:46:40;;;;;;;3.15;2.10;;;11.30;99.90;;;;;;6180139;23;20080;-67
2024/02/22 08:49:26;;;;;;;4.93;2.15;;;11.30;99.90;;;;;;6181503;23;20453;-69
2024/02/22 08:52:11;;;;;;;3.17;2.00;;;11.30;99.90;;;;;;6183594;23;20075;-67
2024/02/22 08:54:57;;;;;;;3.00;2.10;;;11.30;99.90;;;;;;6181107;23;20067;-69
2024/02/22 08:57:43;;;;;;;3.80;2.17;;;11.30;99.90;;;;;;6182334;23;20060;-67
2024/02/22 09:00:29;;;;;;;2.70;2.10;;;11.30;99.90;;;;;;6182079;23;20520;-68
2024/02/22 09:03:15;;;;;;;3.30;1.80;;;11.30;99.90;;;;;;6183246;23;20023;-68
2024/02/22 09:06:01;;;;;;;3.63;2.13;;;11.40;99.90;;;;;;6182996;23;20005;-69
2024/02/22 09:08:47;;;;;;;3.83;2.00;;;11.30;99.90;;;;;;6184398;23;20037;-69
2024/02/22 09:11:33;;;;;;;4.38;2.42;;;11.30;99.90;;;;;;6183731;23;20005;-68
2024/02/22 09:14:19;;;;;;;4.07;2.60;;;11.40;99.90;;;;;;6180844;23;20012;-68
2024/02/22 09:17:05;;;;;;;3.47;2.55;;;11.40;99.90;;;;;;6182978;23;20009;-68
2024/02/22 09:19:51;;;;;;;3.17;2.22;;;11.40;99.90;;;;;;6183670;23;20008;-70
2024/02/22 09:22:40;;;;;;;3.92;2.20;;;11.40;99.90;;;;;;6182297;23;20013;-68
2024/02/22 09:25:25;;;;;;;3.17;2.00;;;11.40;99.90;;;;;;6182496;23;20092;-68
2024/02/22 09:28:12;;;;;;;4.28;2.50;;;11.40;99.90;;;;;;6182855;23;20319;-69
2024/02/22 09:30:58;;;;;;;3.10;2.20;;;11.40;99.90;;;;;;6182580;23;20001;-67
2024/02/22 09:33:44;;;;;;;3.78;2.20;;;11.40;99.90;;;;;;6180726;23;20023;-67
2024/02/22 09:36:29;;;;;;;4.20;2.33;;;11.50;99.90;;;;;;6183536;23;20005;-68
2024/02/22 09:39:16;;;;;;;3.15;2.33;;;11.50;99.90;;;;;;6183276;23;20012;-68
2024/02/22 09:42:01;;;;;;;3.65;2.60;;;11.50;99.90;;;;;;6180510;23;20021;-67
2024/02/22 09:44:48;;;;;;;4.10;2.45;;;11.50;99.90;;;;;;6180930;23;20103;-67
2024/02/22 09:47:34;;;;;;;3.92;2.45;;;11.50;99.90;;;;;;6183684;23;20013;-67
2024/02/22 09:50:20;;;;;;;4.38;2.58;;;11.60;99.90;;;;;;6181972;23;20429;-66
2024/02/22 09:53:07;;;;;;;3.42;2.47;;;11.60;99.90;;;;;;6183184;23;20032;-67
2024/02/22 09:55:54;;;;;;;3.72;2.25;;;11.60;99.90;;;;;;6180196;23;19997;-66
2024/02/22 09:58:40;;;;;;;4.88;2.45;;;11.60;99.90;;;;;;6184216;23;20005;-67
2024/02/22 10:01:26;;;;;;;3.33;2.55;;;11.70;99.90;;;;;;6183578;23;20005;-67
2024/02/22 10:04:16;;;;;;;3.67;2.90;;;11.70;99.90;;;;;;6181865;23;20041;-67
2024/02/22 10:07:02;;;;;;;3.20;2.17;;;11.70;99.90;;;;;;6180619;23;20613;-67
2024/02/22 10:09:49;;;;;;;4.10;2.65;;;11.70;99.90;;;;;;6181652;23;20005;-60
2024/02/22 10:12:35;;;;;;;2.80;2.20;;;11.80;99.90;;;;;;6182784;23;20005;-61
2024/02/22 10:15:25;;;;;;;3.22;1.92;;;11.80;99.90;;;;;;6180018;23;20058;-61
2024/02/22 10:18:11;;;;;;;3.10;2.08;;;11.80;99.90;;;;;;6181402;23;20052;-61
2024/02/22 10:20:57;;;;;;;2.97;2.38;;;11.80;99.90;;;;;;6182652;23;20010;-60
2024/02/22 10:23:45;;;;;;;3.13;2.03;;;11.80;99.90;;;;;;6179673;23;20052;-60
2024/02/22 10:26:31;;;;;;;3.92;2.42;;;11.90;99.90;;;;;;6180099;23;20012;-60
2024/02/22 10:29:18;;;;;;;4.20;2.25;;;11.90;99.90;;;;;;6179414;23;20013;-60
2024/02/22 10:32:04;;;;;;;3.03;2.20;;;12.00;99.90;;;;;;6183072;23;20009;-60
2024/02/22 10:34:50;;;;;;;2.92;2.30;;;12.00;99.90;;;;;;6179020;23;20020;-60
2024/02/22 10:37:37;;;;;;;3.22;2.30;;;12.00;99.90;;;;;;6181221;23;20012;-59
2024/02/22 10:40:24;;;;;;;4.38;2.40;;;12.10;99.90;;;;;;6182635;23;20001;-60
2024/02/22 10:43:11;;;;;;;3.97;2.35;;;12.10;99.90;;;;;;6180958;23;20012;-61
2024/02/22 10:46:02;;;;;;;4.55;2.72;;;12.10;99.90;;;;;;6181148;23;20017;-59
2024/02/22 10:48:54;;;;;;;4.13;2.25;;;12.20;99.90;;;;;;6182202;23;20013;-60
2024/02/22 10:51:41;;;;;;;3.53;2.70;;;12.20;99.90;;;;;;6182588;23;20005;-63
2024/02/22 10:54:30;;;;;;;3.55;2.60;;;12.20;99.90;;;;;;6182236;23;20467;-63
2024/02/22 10:57:17;;;;;;;5.10;2.25;;;12.30;99.90;;;;;;6183107;23;20512;-62
2024/02/22 11:00:05;;;;;;;3.22;2.30;;;12.40;99.90;;;;;;6182280;23;20055;-62
2024/02/22 11:02:52;;;;;;;4.47;3.05;;;12.50;99.90;;;;;;6180688;23;20508;-61
2024/02/22 11:05:39;;;;;;;3.08;2.58;;;12.60;99.90;;;;;;6181695;23;20008;-60
2024/02/22 11:08:28;;;;;;;8.40;3.38;;;12.70;99.90;;;;;;6179897;23;20063;-60
2024/02/22 11:11:28;;;;;;;3.97;2.53;;;12.80;99.90;;;;;;6183027;23;20016;-61
2024/02/22 11:14:26;;;;;;;4.20;2.60;;;12.90;99.90;;;;;;6182930;23;20020;-61
2024/02/22 11:17:21;;;;;;;3.88;2.65;;;13.10;99.90;;;;;;6182161;23;20160;-60
2024/02/22 11:20:08;;;;;;;3.38;2.30;;;13.10;99.90;;;;;;6180888;23;20126;-61
2024/02/22 11:22:54;;;;;;;3.28;2.30;;;13.10;99.90;;;;;;6179670;23;20017;-60
2024/02/22 11:25:40;;;;;;;2.70;2.08;;;13.20;99.90;;;;;;6177628;23;20005;-61
2024/02/22 11:28:27;;;;;;;3.03;2.17;;;13.20;99.90;;;;;;6183534;23;20311;-60
2024/02/22 11:31:14;;;;;;;2.80;2.03;;;13.20;99.90;;;;;;6179970;23;20016;-61
2024/02/22 11:34:00;;;;;;;4.40;2.35;;;13.20;99.90;;;;;;6180687;23;20055;-60
2024/02/22 11:36:46;;;;;;;3.10;2.30;;;13.20;99.90;;;;;;6181784;23;20005;-61
2024/02/22 11:39:32;;;;;;;3.63;2.53;;;13.20;99.90;;;;;;6183004;23;20005;-61
2024/02/22 11:42:18;;;;;;;5.13;2.60;;;13.30;99.90;;;;;;6181565;23;20476;-61
2024/02/22 11:45:11;;;;;;;3.35;2.55;;;13.30;99.90;;;;;;6180907;23;20160;-62
2024/02/22 11:47:58;;;;;;;4.20;2.20;;;13.40;99.90;;;;;;6180189;23;20094;-61
2024/02/22 11:50:44;;;;;;;4.25;2.40;;;13.50;99.90;;;;;;6183243;23;20009;-60
2024/02/22 11:53:30;;;;;;;3.85;2.60;;;13.50;99.90;;;;;;6184609;23;20354;-67
2024/02/22 11:56:16;;;;;;;4.68;2.50;;;13.50;99.90;;;;;;6183191;23;20001;-67
2024/02/22 11:59:02;;;;;;;3.80;2.08;;;13.50;99.90;;;;;;6183250;23;20005;-68
2024/02/22 12:01:49;;;;;;;3.45;2.03;;;13.50;99.90;;;;;;6181831;23;20013;-69
2024/02/22 12:04:35;;;;;;;4.72;2.00;;;13.50;99.90;;;;;;6183446;23;20430;-68
2024/02/22 12:07:21;;;;;;;2.88;2.20;;;13.50;99.90;;;;;;6181335;23;20005;-68
2024/02/22 12:10:09;;;;;;;3.25;1.70;;;13.60;99.90;;;;;;6184408;23;20319;-68
2024/02/22 12:12:55;;;;;;;2.72;1.92;;;13.50;99.90;;;;;;6179953;23;20010;-68
2024/02/22 12:15:42;;;;;;;3.03;2.20;;;13.50;99.90;;;;;;6179900;23;20011;-69
2024/02/22 12:18:28;;;;;;;3.20;2.10;;;13.40;99.90;;;;;;6178910;23;20016;-69
2024/02/22 12:21:14;;;;;;;4.30;1.90;;;13.40;99.90;;;;;;6181406;23;20008;-67
2024/02/22 12:24:01;;;;;;;3.63;2.50;;;13.30;99.90;;;;;;6181335;23;20599;-68
2024/02/22 12:26:52;;;;;;;3.78;2.42;;;13.30;99.90;;;;;;6182377;23;20024;-67
2024/02/22 12:29:38;;;;;;;4.85;2.90;;;13.30;99.90;;;;;;6183032;23;20005;-68
2024/02/22 12:32:24;;;;;;;3.30;2.33;;;13.30;99.90;;;;;;6183591;23;20128;-69
2024/02/22 12:35:10;;;;;;;3.88;2.70;;;13.30;99.90;;;;;;6182107;23;20040;-69
2024/02/22 12:37:57;;;;;;;3.83;2.53;;;13.30;99.90;;;;;;6183539;23;20005;-69
2024/02/22 12:40:44;;;;;;;4.90;2.55;;;13.30;99.90;;;;;;6182747;23;20009;-68
2024/02/22 12:43:30;;;;;;;3.38;2.00;;;13.30;99.90;;;;;;6182189;23;20469;-68
2024/02/22 12:46:17;;;;;;;3.50;2.38;;;13.40;99.90;;;;;;6182664;23;20009;-68
2024/02/22 12:49:03;;;;;;;6.25;2.90;;;13.30;99.90;;;;;;6185059;23;20096;-60
2024/02/22 12:51:49;;;;;;;3.88;2.50;;;13.40;99.90;;;;;;6184302;23;20103;-60
2024/02/22 12:54:35;;;;;;;4.90;2.58;;;13.50;99.90;;;;;;6183456;23;20338;-61
2024/02/22 12:57:21;;;;;;;3.67;2.60;;;13.50;99.90;;;;;;6181500;23;20005;-60
2024/02/22 13:00:09;;;;;;;3.13;2.20;;;13.50;99.90;;;;;;6178299;23;20071;-60
2024/02/22 13:02:55;;;;;;;3.08;2.10;;;13.50;99.90;;;;;;6181301;23;20341;-61
2024/02/22 13:05:41;;;;;;;2.88;2.08;;;13.60;99.90;;;;;;6179857;23;20001;-61
2024/02/22 13:08:27;;;;;;;4.72;2.13;;;13.60;99.90;;;;;;6179560;23;20485;-61
2024/02/22 13:11:13;;;;;;;5.07;2.00;;;13.60;99.90;;;;;;6181447;23;20071;-60
2024/02/22 13:13:59;;;;;;;2.28;1.63;;;13.70;99.90;;;;;;6181925;23;20461;-60
2024/02/22 13:16:45;;;;;;;4.05;2.15;;;13.70;99.90;;;;;;6180884;23;20005;-61
2024/02/22 13:19:31;;;;;;;2.42;1.50;;;13.80;99.90;;;;;;6182995;23;20437;-68
2024/02/22 13:22:17;;;;;;;2.72;1.88;;;13.90;99.90;;;;;;6182633;23;20508;-68
2024/02/22 13:25:03;;;;;;;1.48;1.33;;;14.00;99.90;;;;;;6182125;23;20009;-68
2024/02/22 13:27:49;;;;;;;2.33;1.60;;;14.00;99.90;;;;;;6183900;23;20009;-68
2024/02/22 13:30:35;;;;;;;2.65;1.60;;;14.00;99.90;;;;;;6181995;23;20005;-60
2024/02/22 13:33:21;;;;;;;2.40;1.52;;;14.00;99.90;;;;;;6182613;23;20005;-59
2024/02/22 13:36:07;;;;;;;4.55;2.05;;;14.00;99.90;;;;;;6182618;23;20001;-65
2024/02/22 13:38:54;;;;;;;3.03;1.80;;;14.00;99.90;;;;;;6182540;23;20450;-68
2024/02/22 13:41:40;;;;;;;3.40;2.13;;;14.00;99.90;;;;;;6181513;23;20024;-65
2024/02/22 13:44:26;;;;;;;2.95;1.77;;;14.00;99.90;;;;;;6180467;23;20443;-62
2024/02/22 13:47:12;;;;;;;2.35;1.55;;;14.00;99.90;;;;;;6183807;23;20016;-62
2024/02/22 13:49:59;;;;;;;1.92;1.50;;;14.00;99.90;;;;;;6182123;23;20012;-62
2024/02/22 13:52:44;;;;;;;2.38;1.60;;;13.90;99.90;;;;;;6182637;23;20109;-62
2024/02/22 13:55:31;;;;;;;3.13;1.83;;;13.90;99.90;;;;;;6181057;23;20329;-63
2024/02/22 13:58:17;;;;;;;3.38;1.83;;;13.90;99.90;;;;;;6182079;23;20067;-64
2024/02/22 14:01:04;;;;;;;3.67;2.10;;;13.90;99.90;;;;;;6182528;23;20456;-62
2024/02/22 14:03:50;;;;;;;2.60;1.40;;;13.90;99.90;;;;;;6181296;23;20068;-63
2024/02/22 14:06:36;;;;;;;2.15;1.55;;;13.90;99.90;;;;;;6183199;23;20001;-63
2024/02/22 14:09:22;;;;;;;2.88;1.40;;;13.90;99.90;;;;;;6183257;23;20063;-64
2024/02/22 14:12:08;;;;;;;2.00;1.50;;;14.00;99.90;;;;;;6179989;23;20005;-64
2024/02/22 14:14:54;;;;;;;1.77;1.50;;;13.90;99.90;;;;;;6182692;23;20023;-63
2024/02/22 14:17:39;;;;;;;2.15;1.40;;;13.90;99.90;;;;;;6179920;23;20402;-62
2024/02/22 14:20:25;;;;;;;1.80;1.50;;;13.90;99.90;;;;;;6182225;23;20423;-62
2024/02/22 14:23:11;;;;;;;2.25;1.50;;;13.90;99.90;;;;;;6182671;23;20433;-61
2024/02/22 14:25:58;;;;;;;3.65;1.60;;;13.80;99.90;;;;;;6180260;23;20083;-62
2024/02/22 14:28:44;;;;;;;2.85;1.60;;;13.90;99.90;;;;;;6181529;23;20017;-62